Date,TemperatureHighF,TemperatureAvgF,TemperatureLowF,DewpointHighF,DewpointAvgF,DewpointLowF,HumidityHigh,HumidityAvg,HumidityLow,PressureMaxIn,PressureMinIn,WindSpeedMaxMPH,WindSpeedAvgMPH,GustSpeedMaxMPH,PrecipitationSumIn
2013-1-13,54.6,44.8,41.6,51.0,42.5,40.0,97,92,80,29.96,29.88,4,0,12,0.00
2013-1-14,47.0,38.4,32.1,47.0,32.9,23.0,99,81,66,30.36,29.83,9,2,17,0.01
2013-1-15,33.9,31.5,29.6,26.0,24.5,22.0,84,75,62,30.39,30.24,4,0,7,0.00
2013-1-16,34.1,30.8,28.5,31.0,27.5,23.0,93,87,75,30.24,29.83,5,0,10,0.00
2013-1-17,35.6,28.4,19.9,30.0,19.0,8.0,89,68,54,30.20,29.87,9,2,17,0.00
2013-1-18,26.6,18.6,9.3,14.0,7.7,-1.0,78,63,48,30.45,30.16,7,1,9,0.00
2013-1-19,48.2,39.7,27.8,26.0,19.5,13.0,56,45,37,30.21,29.72,9,3,20,0.00
2013-1-20,47.5,33.8,18.6,36.0,21.4,11.0,95,63,42,30.05,29.46,23,4,33,0.07
2013-1-21,23.9,18.7,14.1,20.0,16.3,12.0,93,90,83,30.07,29.85,2,0,7,0.00
2013-1-22,16.6,12.7,6.6,15.0,5.8,-2.0,92,75,53,30.18,29.84,11,2,18,0.00
2013-1-23,8.4,1.9,-6.1,2.0,-4.6,-10.0,87,75,58,30.29,30.17,5,0,11,0.00
2013-1-24,12.8,3.3,-7.9,9.0,-2.2,-12.0,88,78,57,30.49,30.22,8,1,15,0.00
2013-1-25,16.7,10.2,3.7,9.0,3.2,-3.0,90,74,56,30.50,30.14,4,0,11,0.00
2013-1-26,17.9,10.7,3.0,9.0,5.7,1.0,91,81,55,30.41,30.13,6,1,11,0.00
2013-1-27,24.4,14.3,3.7,11.0,6.8,1.0,92,73,45,30.61,30.42,5,1,9,0.00
2013-1-28,29.6,22.5,18.8,29.0,18.1,11.0,97,83,67,30.50,29.95,4,1,8,0.00
2013-1-29,38.1,34.0,29.9,38.0,33.3,29.0,98,97,95,30.13,29.92,4,1,7,0.93
2013-1-30,60.5,50.9,37.5,56.0,48.5,37.0,99,91,81,29.92,29.20,11,4,25,0.46
2013-1-31,54.8,35.9,25.0,53.0,27.9,15.0,98,74,55,29.66,28.96,20,6,31,0.30
2013-2-1,24.9,21.1,17.4,19.0,14.5,11.0,92,76,58,30.21,29.66,11,3,25,0.00
2013-2-2,22.1,17.8,13.8,14.0,11.6,9.0,90,77,61,30.22,30.05,5,1,10,0.00
2013-2-3,29.2,20.0,7.4,20.0,14.2,5.0,93,79,57,30.04,29.80,6,1,11,0.00
2013-2-4,22.1,18.9,14.8,19.0,15.6,12.0,92,87,72,29.97,29.83,7,2,14,0.00
2013-2-5,28.1,19.4,9.7,17.0,12.8,7.0,93,77,54,30.04,29.90,3,0,5,0.00
2013-2-6,29.0,23.7,16.3,26.0,15.5,5.0,91,72,40,30.41,29.91,11,2,19,0.00
2013-2-7,27.2,19.0,8.3,11.0,8.2,5.0,86,64,47,30.54,30.30,9,2,13,0.00
2013-2-8,29.8,25.4,21.3,26.0,20.1,10.0,95,81,61,30.29,29.86,11,2,18,0.00
2013-2-9,25.6,18.5,8.0,24.0,12.8,6.0,95,79,56,30.45,29.94,7,1,16,0.00
2013-2-10,33.8,21.1,8.0,22.0,12.6,6.0,95,73,49,30.52,30.18,5,1,8,0.00
2013-2-11,48.8,34.4,23.2,40.0,28.1,9.0,95,79,54,30.18,29.63,7,2,14,0.00
2013-2-12,37.0,34.0,31.4,31.0,28.8,26.0,93,81,69,29.96,29.71,13,3,22,0.00
2013-2-13,40.3,32.9,26.6,27.0,23.9,21.0,84,71,49,29.91,29.75,5,1,11,0.00
2013-2-14,41.9,30.9,20.0,33.0,24.5,18.0,92,78,55,29.97,29.78,4,0,8,0.00
2013-2-15,43.4,37.7,30.0,33.0,28.3,22.0,85,70,45,30.03,29.83,8,2,16,0.00
2013-2-16,32.9,26.4,20.5,25.0,14.8,7.0,87,63,39,30.05,29.92,8,1,10,0.00
2013-2-17,21.4,15.8,11.9,10.0,6.1,2.0,86,66,47,30.08,29.85,9,2,20,0.00
2013-2-18,27.1,16.3,6.7,12.0,7.3,2.0,82,69,49,30.31,30.09,7,2,16,0.00
2013-2-19,37.7,28.5,20.1,34.0,21.7,10.0,96,77,59,30.12,29.65,11,2,14,0.00
2013-2-20,28.9,25.2,21.0,26.0,17.2,11.0,89,73,51,29.96,29.74,12,4,26,0.00
2013-2-21,20.9,17.3,13.7,18.0,13.4,9.0,92,84,77,30.47,29.95,10,3,20,0.00
2013-2-22,35.2,26.6,16.9,26.0,20.6,15.0,93,79,63,30.47,30.19,6,1,12,0.00
2013-2-23,35.5,34.3,32.5,35.0,30.5,25.0,97,86,66,30.18,29.87,8,1,11,0.00
2013-2-24,34.8,32.1,30.1,34.0,29.1,26.0,98,89,72,30.02,29.85,9,2,13,0.00
2013-2-25,39.4,33.1,25.6,33.0,29.7,24.0,95,88,71,30.27,30.03,6,1,12,0.00
2013-2-26,43.6,34.0,20.6,31.0,26.4,19.0,96,76,56,30.30,29.97,10,2,20,0.00
2013-2-27,39.1,35.6,32.0,37.0,34.0,31.0,97,93,83,29.98,29.57,11,3,19,0.00
2013-2-28,38.1,35.6,34.1,36.0,34.3,33.0,98,95,89,29.67,29.56,3,0,4,0.00
2013-3-1,36.0,32.7,29.3,33.0,30.5,25.0,97,91,85,29.87,29.67,9,2,15,0.00
2013-3-2,29.2,25.4,21.7,26.0,22.0,19.0,92,87,81,29.89,29.84,9,2,13,0.00
2013-3-3,26.5,22.8,19.4,21.0,19.1,17.0,93,86,76,29.87,29.81,13,2,15,0.00
2013-3-4,28.5,26.0,23.7,25.0,23.1,21.0,93,89,83,29.99,29.84,9,3,24,0.00
2013-3-5,39.4,29.8,23.9,27.0,24.3,21.0,92,81,59,30.12,29.99,7,1,11,0.00
2013-3-6,42.2,34.6,25.4,32.0,26.8,23.0,93,75,58,30.15,30.03,7,1,12,0.00
2013-3-7,38.7,34.5,28.7,30.0,25.5,22.0,96,71,57,30.22,30.14,4,1,6,0.00
2013-3-8,44.2,32.7,27.4,29.0,26.7,24.0,96,80,51,30.38,30.19,8,2,11,0.00
2013-3-9,50.9,35.2,20.6,30.0,26.0,19.0,94,72,40,30.41,30.33,4,1,8,0.00
2013-3-10,59.5,43.6,28.0,29.0,25.3,21.0,85,53,25,30.33,30.12,11,2,15,0.00
2013-3-11,52.9,46.6,39.8,42.0,33.6,27.0,74,61,44,30.16,29.85,20,2,23,0.00
2013-3-12,53.6,43.3,35.5,48.0,40.5,33.0,97,90,72,29.91,29.76,12,2,16,0.00
2013-3-13,41.4,35.1,29.4,33.0,28.3,20.0,92,77,53,29.91,29.82,8,2,15,0.00
2013-3-14,35.7,24.4,18.9,35.0,16.3,10.0,97,72,55,29.99,29.88,16,4,29,0.04
2013-3-15,36.3,28.0,17.0,33.0,22.5,13.0,96,80,60,30.02,29.69,7,1,15,0.03
2013-3-16,32.1,26.3,19.8,24.0,16.6,13.0,81,67,48,29.98,29.84,2,1,9,0.00
2013-3-17,33.4,24.6,17.4,18.0,12.5,6.0,91,63,40,30.38,29.98,10,2,18,0.00
2013-3-18,33.9,24.9,13.3,26.0,13.6,8.0,93,65,35,30.44,29.97,9,2,14,0.00
2013-3-19,38.2,30.2,26.1,34.0,27.8,22.0,96,90,80,29.96,29.70,10,2,17,0.08
2013-3-20,34.8,28.0,22.3,27.0,22.2,18.0,91,79,55,29.83,29.79,13,2,20,0.00
2013-3-21,35.1,25.8,12.4,20.0,14.8,9.0,84,65,42,29.83,29.71,12,2,13,0.00
2013-3-22,31.9,28.5,24.0,29.0,24.4,17.0,95,85,69,29.87,29.70,15,2,18,0.00
2013-3-23,38.5,32.4,29.1,28.0,25.9,23.0,96,78,56,29.96,29.83,11,3,20,0.02
2013-3-24,44.5,35.7,31.3,26.0,24.5,22.0,78,65,42,29.95,29.78,6,1,10,0.00
2013-3-25,45.8,37.0,29.0,27.0,24.5,22.0,80,62,43,29.77,29.56,5,1,10,0.00
2013-3-26,50.3,38.7,33.2,33.0,26.2,18.0,89,63,30,29.91,29.66,6,1,13,0.00
2013-3-27,47.2,38.4,30.2,32.0,29.1,26.0,85,70,53,30.02,29.88,8,2,20,0.00
2013-3-28,48.8,39.8,34.8,36.0,32.9,30.0,94,77,52,30.17,30.00,6,2,14,0.00
2013-3-29,44.7,39.7,37.6,34.0,32.3,30.0,82,75,63,30.18,30.11,8,1,11,0.00
2013-3-30,53.7,41.0,30.3,32.0,26.7,21.0,89,61,30,30.19,30.10,9,1,12,0.00
2013-3-31,55.2,41.7,29.8,41.0,30.5,23.0,90,67,35,30.12,29.70,11,2,25,0.02
2013-4-1,45.0,37.9,28.4,42.0,30.5,17.0,96,76,48,29.91,29.59,15,3,23,0.11
2013-4-2,33.4,28.3,24.6,27.0,23.5,20.0,93,82,62,30.06,29.89,13,4,22,0.00
2013-4-3,36.3,30.6,26.0,25.0,19.7,15.0,90,66,47,30.34,30.06,13,4,26,0.00
2013-4-4,56.1,39.1,28.1,25.0,22.4,19.0,78,55,27,30.37,29.94,5,1,10,0.11
2013-4-5,47.1,40.0,33.2,32.0,24.1,18.0,85,55,35,30.06,29.88,12,3,20,0.00
2013-4-6,48.6,36.4,25.5,29.0,13.3,7.0,88,42,22,30.34,30.07,5,1,9,0.00
2013-4-7,65.2,51.5,35.6,43.0,29.5,14.0,72,44,30,30.20,29.79,17,4,23,0.01
2013-4-8,61.8,49.2,41.1,40.0,35.9,34.0,78,62,41,30.15,29.88,5,2,11,0.00
2013-4-9,62.4,52.4,45.8,50.0,44.5,41.0,93,75,59,30.10,29.78,9,2,18,0.15
2013-4-10,54.5,48.8,45.2,51.0,47.4,44.0,98,95,85,30.02,29.85,5,0,13,1.30
2013-4-11,44.9,38.6,33.7,44.0,36.3,31.0,98,91,82,30.12,29.93,4,1,10,0.16
2013-4-12,38.2,36.0,32.9,38.0,34.4,30.0,97,94,86,30.07,29.70,11,3,24,0.71
2013-4-13,49.8,43.0,38.2,40.0,37.9,36.0,98,83,65,29.96,29.81,7,1,11,0.07
2013-4-14,48.6,40.8,32.5,37.0,31.1,25.0,93,70,43,30.25,29.95,13,2,13,0.01
2013-4-15,66.4,47.5,30.6,43.0,34.2,27.0,87,63,38,30.32,30.16,9,2,14,0.00
2013-4-16,61.9,55.6,48.1,57.0,47.4,40.0,94,75,57,30.21,29.96,15,5,24,0.55
2013-4-17,62.4,49.4,36.9,43.0,34.7,28.0,88,61,30,30.33,30.19,7,1,13,0.00
2013-4-18,67.9,55.2,41.2,53.0,41.0,30.0,79,60,45,30.31,29.91,17,4,24,0.00
2013-4-19,73.3,62.1,42.2,60.0,53.7,41.0,95,75,60,29.91,29.45,15,4,24,0.82
2013-4-20,47.6,41.2,33.0,41.0,31.3,21.0,94,69,45,30.38,29.73,12,3,21,0.04
2013-4-21,53.0,38.6,28.3,27.0,21.7,17.0,76,54,27,30.66,30.39,6,1,13,0.00
2013-4-22,58.7,44.9,30.1,28.0,24.5,21.0,84,49,24,30.67,30.45,15,2,17,0.00
2013-4-23,58.4,47.0,35.0,40.0,33.7,27.0,80,61,42,30.46,30.10,8,3,13,0.00
2013-4-24,73.9,54.8,39.7,58.0,45.3,37.0,92,73,42,30.10,29.66,10,2,17,0.43
2013-4-25,58.7,46.1,37.9,41.0,31.2,23.0,92,60,27,30.28,29.90,8,2,18,0.03
2013-4-26,55.6,45.4,37.5,40.0,33.8,28.0,94,67,36,30.48,30.27,7,1,12,0.04
2013-4-27,67.1,49.2,31.1,41.0,33.5,28.0,92,60,27,30.47,30.29,4,1,10,0.00
2013-4-28,76.1,59.4,40.9,44.0,38.3,34.0,87,52,22,30.29,30.06,9,1,11,0.00
2013-4-29,62.4,53.4,49.4,51.0,47.9,36.0,92,82,38,30.16,30.10,7,2,14,0.44
2013-4-30,69.6,59.3,50.8,52.0,49.4,47.0,89,71,52,30.26,30.16,7,1,13,0.00
2013-5-1,78.6,63.7,47.0,48.0,39.1,32.0,87,45,23,30.42,30.26,5,1,11,0.00
2013-5-2,84.3,66.7,48.7,46.0,39.7,32.0,71,40,20,30.44,30.26,7,1,9,0.00
2013-5-3,65.8,61.0,58.2,44.0,41.9,40.0,56,50,45,30.32,30.27,5,2,11,0.00
2013-5-8,70.2,64.8,60.6,61.0,59.2,56.0,95,83,62,30.07,29.93,2,0,12,0.06
2013-5-9,73.5,61.6,52.2,59.0,54.1,51.0,97,79,45,29.95,29.87,4,1,13,0.02
2013-5-10,76.8,63.4,49.0,61.0,53.9,48.0,97,74,45,29.98,29.79,10,1,13,0.12
2013-5-11,65.8,57.9,50.6,60.0,54.7,48.0,95,88,81,29.79,29.65,6,1,17,0.27
2013-5-12,56.1,48.4,36.8,48.0,38.4,26.0,96,72,35,29.90,29.68,9,2,17,0.04
2013-5-13,51.9,42.9,36.8,34.0,30.1,26.0,83,62,38,30.11,29.89,11,2,17,0.05
2013-5-14,58.3,45.1,32.2,34.0,29.8,22.0,93,60,25,30.17,30.04,6,1,10,0.00
2013-5-15,67.1,51.0,34.9,55.0,41.6,29.0,89,71,49,30.04,29.57,8,1,17,0.07
2013-5-16,76.4,63.8,49.4,46.0,40.6,33.0,76,46,25,29.93,29.71,13,2,20,0.00
2013-5-17,69.4,56.5,43.1,45.0,41.1,38.0,84,59,36,30.24,29.93,6,1,10,0.00
2013-5-18,75.4,58.9,41.0,49.0,43.6,39.0,93,62,29,30.30,30.18,7,1,11,0.00
2013-5-19,64.5,58.5,54.1,58.0,52.8,47.0,93,81,66,30.23,30.11,6,1,10,0.05
2013-5-20,86.4,70.9,58.6,65.0,60.9,56.0,91,73,46,30.11,29.89,4,0,7,0.00
2013-5-21,89.8,73.4,64.2,70.0,65.4,62.0,98,78,46,29.91,29.73,17,1,27,2.51
2013-5-22,87.6,72.2,63.6,72.0,67.3,62.0,99,86,47,29.82,29.70,6,0,11,0.19
2013-5-23,78.7,69.4,62.7,65.0,62.1,57.0,97,79,58,29.78,29.69,9,2,14,0.35
2013-5-24,62.9,46.3,42.2,62.0,45.4,41.0,98,96,93,30.11,29.70,8,2,16,0.58
2013-5-25,48.9,44.7,42.6,44.0,42.1,40.0,98,91,73,30.12,30.06,6,1,10,0.50
2013-5-26,61.7,50.7,43.8,43.0,39.7,35.0,91,68,38,30.17,30.01,10,2,20,0.01
2013-5-27,69.4,55.4,39.2,42.0,37.3,30.0,92,56,24,30.25,30.15,7,1,13,0.00
2013-5-28,67.8,55.9,40.4,56.0,46.3,38.0,91,72,43,30.20,30.05,9,1,13,0.03
2013-5-29,82.4,65.9,57.1,70.0,62.1,56.0,99,89,59,30.05,29.88,6,1,23,1.11
2013-5-30,87.2,72.3,58.6,71.0,65.1,58.0,100,81,51,30.11,30.02,7,1,10,0.01
2013-5-31,93.1,78.7,63.6,70.0,66.2,63.0,97,69,40,30.09,29.91,3,0,6,0.00
2013-6-1,91.3,79.5,65.5,68.0,65.0,62.0,89,63,43,29.94,29.77,6,1,10,0.00
2013-6-2,82.5,73.0,64.8,70.0,66.4,60.0,92,80,56,29.81,29.66,8,1,11,0.22
2013-6-3,65.0,58.0,49.6,59.0,47.8,36.0,85,70,36,29.97,29.81,8,2,12,0.00
2013-6-4,67.7,56.0,44.9,46.0,42.4,37.0,90,63,34,30.16,29.97,10,2,16,0.00
2013-6-5,76.0,61.3,46.1,50.0,44.5,39.0,91,59,29,30.21,30.09,4,0,7,0.00
2013-6-6,62.6,58.1,53.5,59.0,52.2,47.0,97,81,68,30.11,29.92,4,0,9,0.61
2013-6-7,58.5,56.7,55.2,57.0,55.6,54.0,97,96,93,29.92,29.79,3,1,9,0.22
2013-6-8,66.9,59.7,56.0,61.0,57.1,55.0,98,91,80,30.07,29.77,11,1,13,0.00
2013-6-9,77.6,64.9,54.1,58.0,55.5,53.0,97,75,44,30.18,30.06,6,1,8,0.00
2013-6-10,64.9,60.4,54.5,61.0,58.1,53.0,97,92,77,30.18,29.80,3,0,10,0.86
2013-6-11,66.1,61.2,58.0,66.0,60.3,56.0,98,96,94,29.80,29.61,5,1,14,0.47
2013-6-12,75.0,63.7,55.6,57.0,55.0,52.0,95,76,45,29.89,29.73,6,1,12,0.00
2013-6-13,58.5,57.1,55.2,57.0,55.8,54.0,98,95,89,29.82,29.60,3,0,11,1.65
2013-6-14,73.8,62.1,53.2,63.0,57.4,53.0,99,85,64,29.92,29.73,7,1,16,0.03
2013-6-15,75.2,63.1,49.5,56.0,50.2,43.0,98,68,33,30.02,29.92,7,1,15,0.00
2013-6-16,70.2,61.6,53.5,65.0,57.2,50.0,98,86,55,29.96,29.69,4,1,12,0.22
2013-6-17,79.2,67.1,57.5,66.0,61.1,57.0,99,82,56,29.91,29.81,6,1,12,0.15
2013-6-18,74.6,62.2,56.5,61.0,55.4,48.0,98,81,43,29.99,29.89,1,0,5,0.15
2013-6-19,71.7,59.8,46.7,49.0,46.6,43.0,96,66,38,30.20,29.99,5,1,11,0.00
2013-6-20,81.1,63.5,45.7,56.0,50.2,44.0,94,66,38,30.27,30.19,4,0,7,0.00
2013-6-21,86.2,68.7,53.0,57.0,52.1,44.0,93,61,29,30.28,30.18,7,1,7,0.00
2013-6-22,86.9,74.1,59.9,66.0,61.4,55.0,88,67,43,30.19,30.02,4,1,12,0.00
2013-6-23,89.7,77.0,68.6,74.0,68.9,65.0,98,77,51,30.07,29.97,5,1,11,0.54
2013-6-24,89.0,72.8,65.2,73.0,68.3,65.0,99,88,53,30.02,29.91,6,1,13,0.77
2013-6-25,81.7,71.1,63.1,74.0,69.0,63.0,99,93,75,29.96,29.78,4,0,10,1.88
2013-6-26,84.4,73.5,67.3,72.0,68.4,66.0,98,86,55,29.81,29.76,6,0,8,0.48
2013-6-27,85.5,72.2,63.3,72.0,66.9,63.0,98,85,60,29.80,29.60,5,0,12,0.62
2013-6-28,76.1,69.3,64.9,68.0,65.8,63.0,99,89,71,29.59,29.44,5,1,9,2.46
2013-6-29,77.7,68.5,62.7,69.0,64.7,62.0,97,88,62,29.68,29.48,6,1,14,0.08
2013-6-30,86.0,72.6,61.7,72.0,66.4,61.0,99,83,56,29.89,29.68,5,0,8,0.12
2013-7-1,73.0,70.0,68.0,71.0,69.2,68.0,99,97,92,29.98,29.89,2,0,7,1.03
2013-7-2,84.2,73.4,67.8,76.0,71.2,68.0,100,93,70,30.08,29.98,4,0,5,0.39
2013-7-3,90.5,78.8,70.9,73.0,70.9,69.0,99,78,52,30.16,30.07,5,1,9,0.00
2013-7-4,88.8,79.4,73.8,76.0,72.2,70.0,94,79,56,30.17,30.08,7,1,10,0.03
2013-7-5,91.8,77.9,71.2,75.0,72.3,70.0,98,84,53,30.13,30.04,8,1,8,0.38
2013-7-6,87.1,76.0,69.6,72.0,69.3,65.0,99,82,52,30.12,30.02,5,0,10,0.02
2013-7-7,89.2,77.2,69.7,76.0,71.3,68.0,98,84,61,30.04,29.89,7,1,10,2.52
2013-7-8,83.9,73.8,68.7,71.0,69.2,68.0,98,86,62,30.03,29.94,4,1,8,0.05
2013-7-9,88.9,76.6,66.0,73.0,68.5,65.0,97,78,47,30.05,29.92,7,1,9,0.00
2013-7-10,84.7,77.5,72.1,74.0,71.3,68.0,90,81,67,29.93,29.71,9,2,11,0.03
2013-7-11,78.5,72.4,65.5,69.0,64.2,61.0,93,76,60,30.00,29.76,6,1,11,0.00
2013-7-12,82.7,69.7,59.1,66.0,62.2,58.0,97,79,52,30.16,30.00,2,0,6,0.00
2013-7-13,81.7,72.6,64.8,70.0,66.1,61.0,93,80,67,30.26,30.16,3,0,9,0.00
2013-7-14,90.8,78.9,67.8,73.0,70.0,67.0,97,76,51,30.31,30.21,5,1,9,0.00
2013-7-15,89.3,78.6,70.2,72.0,69.2,65.0,95,75,49,30.26,30.17,3,1,12,0.00
2013-7-16,91.1,78.7,66.4,73.0,68.1,65.0,94,72,47,30.25,30.16,5,1,10,0.00
2013-7-17,93.5,81.0,67.3,75.0,70.7,66.0,95,73,49,30.22,30.02,8,1,11,0.00
2013-7-18,92.6,82.7,75.1,77.0,73.5,71.0,93,75,51,30.05,29.92,5,1,11,0.05
2013-7-19,94.1,83.6,70.5,76.0,71.6,67.0,90,69,46,29.92,29.69,14,2,14,0.05
2013-7-20,80.6,72.5,64.6,72.0,66.8,62.0,97,83,63,29.86,29.70,5,1,13,0.42
2013-7-21,81.4,71.4,60.9,65.0,60.6,57.0,95,71,45,29.98,29.86,6,1,11,0.00
2013-7-22,83.4,70.4,62.5,73.0,66.8,61.0,97,89,64,29.99,29.79,2,0,5,0.62
2013-7-23,83.7,72.3,66.0,72.0,68.1,66.0,99,87,59,29.78,29.58,4,0,8,0.51
2013-7-24,71.6,64.5,54.4,68.0,57.3,51.0,91,78,63,30.03,29.61,9,2,15,0.00
2013-7-25,80.0,62.7,47.9,58.0,52.5,47.0,98,74,39,30.12,30.04,2,0,5,0.00
2013-7-26,81.3,66.5,52.4,60.0,55.3,51.0,97,71,39,30.10,30.00,5,0,11,0.00
2013-7-27,83.9,70.0,55.2,68.0,60.1,54.0,97,74,43,30.03,29.88,6,1,13,0.37
2013-7-28,75.1,68.8,62.4,69.0,66.2,61.0,98,91,78,29.98,29.87,7,1,13,0.37
2013-7-29,74.9,65.3,57.0,64.0,58.2,56.0,98,80,55,30.11,29.98,4,1,8,0.00
2013-7-30,76.0,65.8,57.2,61.0,57.9,54.0,94,77,50,30.18,30.11,8,1,10,0.00
2013-7-31,82.1,67.8,54.9,63.0,58.2,54.0,95,74,46,30.16,29.98,3,0,5,0.00
2013-8-1,79.2,68.4,62.6,70.0,64.5,59.0,95,87,69,29.98,29.75,5,1,11,0.25
2013-8-2,78.5,67.7,61.7,66.0,61.6,57.0,97,82,51,29.89,29.81,4,0,8,0.26
2013-8-3,77.2,67.9,61.5,64.0,58.4,53.0,97,74,46,29.90,29.79,7,2,15,0.12
2013-8-4,72.8,65.0,58.6,62.0,56.7,53.0,94,76,50,30.00,29.87,12,1,15,0.03
2013-8-5,76.4,63.5,50.3,57.0,51.3,46.0,96,69,36,30.09,30.00,4,1,10,0.00
2013-8-6,76.3,36.3,49.3,59.0,31.4,48.0,97,47,43,30.09,30.05,4,0,8,0.00
2013-8-7,-200.0,0.0,200.0,-99.9,0.0,200.0,0,0,100,30.08,29.96,0,0,0,0.00
2013-8-8,-200.0,0.0,200.0,-99.9,0.0,200.0,0,0,100,30.01,29.92,0,0,0,0.00
2013-8-9,-200.0,0.0,200.0,-99.9,0.0,200.0,0,0,100,29.93,29.81,0,0,0,0.00
2013-8-10,-200.0,0.0,200.0,-99.9,0.0,200.0,0,0,100,30.03,29.90,0,0,0,0.00
2013-8-11,-200.0,0.0,200.0,-99.9,0.0,200.0,0,0,100,30.03,30.03,0,0,0,0.00
2013-8-12,-200.0,0.0,200.0,-99.9,0.0,200.0,0,0,100,30.03,30.03,0,0,0,0.00
2013-8-13,-200.0,0.0,200.0,-99.9,0.0,200.0,0,0,100,30.03,30.03,0,0,0,0.00
2013-8-14,-200.0,0.0,200.0,-99.9,0.0,200.0,0,0,100,30.03,30.03,0,0,0,0.00
2013-8-15,-200.0,0.0,200.0,-99.9,0.0,200.0,0,0,100,30.03,30.03,0,0,0,0.00
2013-8-16,-200.0,0.0,200.0,-99.9,0.0,200.0,0,0,100,30.03,30.03,0,0,0,0.00
2013-8-17,-200.0,0.0,200.0,-99.9,0.0,200.0,0,0,100,30.03,30.03,0,0,0,0.00
2013-8-18,-200.0,0.0,200.0,-99.9,0.0,200.0,0,0,100,30.03,30.03,0,0,0,0.00
2013-8-19,-200.0,0.0,200.0,-99.9,0.0,200.0,0,0,100,30.03,30.03,0,0,0,0.00
2013-8-20,-200.0,0.0,200.0,-99.9,0.0,200.0,0,0,100,30.03,30.03,0,0,0,0.00
2013-8-21,91.1,38.9,66.6,65.0,30.5,58.0,80,28,37,30.16,30.00,1,0,3,0.01
2013-8-22,87.7,73.0,61.6,71.0,64.9,59.0,97,78,47,30.02,29.84,2,0,4,0.01
2013-8-23,80.0,65.9,56.3,68.0,58.0,53.0,98,79,41,30.19,29.93,5,0,9,0.01
2013-8-24,80.3,63.3,49.3,57.0,51.7,48.0,96,70,37,30.35,30.19,4,1,6,0.00
2013-8-25,83.1,67.3,51.7,61.0,55.0,50.0,95,68,38,30.38,30.13,6,1,9,0.00
2013-8-26,77.5,70.4,64.6,69.0,64.5,58.0,96,82,66,30.15,29.89,5,1,10,0.41
2013-8-27,84.3,72.2,65.8,69.0,67.0,65.0,97,85,58,29.95,29.86,3,0,5,0.06
2013-8-28,90.1,74.7,64.6,72.0,67.2,64.0,97,79,48,29.90,29.81,5,0,7,0.00
2013-8-29,86.8,71.7,62.9,73.0,66.7,62.0,96,86,54,30.02,29.90,2,0,4,0.65
2013-8-30,85.9,73.5,65.1,71.0,66.8,64.0,97,81,57,29.99,29.77,5,0,8,0.02
2013-8-31,83.5,73.3,67.7,73.0,69.3,67.0,97,87,70,29.82,29.71,6,0,10,0.27
2013-9-1,85.4,75.3,69.3,71.0,69.0,67.0,94,81,59,29.84,29.76,3,0,7,0.00
2013-9-2,85.3,70.3,63.5,72.0,66.7,63.0,98,89,61,29.81,29.60,5,1,18,1.48
2013-9-3,70.7,64.1,60.0,65.0,59.4,54.0,98,85,60,29.89,29.75,7,1,12,0.00
2013-9-4,78.0,67.8,58.1,61.0,56.3,51.0,90,69,44,29.96,29.89,9,1,12,0.02
2013-9-5,68.5,60.7,47.2,62.0,48.6,39.0,94,68,34,30.20,29.90,6,1,13,0.05
2013-9-6,69.9,54.9,41.1,50.0,43.4,35.0,94,69,37,30.30,30.12,5,1,8,0.00
2013-9-7,70.7,59.7,49.7,60.0,53.0,47.0,93,80,48,30.12,29.88,2,0,5,0.03
2013-9-8,69.8,60.5,46.4,60.0,50.2,40.0,97,72,36,30.12,29.82,8,1,8,0.03
2013-9-9,76.6,58.7,41.4,56.0,46.9,40.0,95,69,33,30.21,30.03,7,1,12,0.00
2013-9-10,89.2,74.4,64.2,75.0,66.9,55.0,96,78,61,30.05,29.94,8,1,11,0.76
2013-9-11,94.7,80.9,68.5,75.0,71.1,67.0,96,74,46,30.04,29.89,9,1,14,1.12
2013-9-12,81.1,70.3,64.9,70.0,66.9,62.0,97,89,64,29.89,29.68,4,1,13,0.14
2013-9-13,64.8,56.8,48.8,62.0,54.5,48.0,96,92,82,29.95,29.66,3,1,8,0.10
2013-9-14,61.0,51.5,44.6,48.0,46.3,43.0,95,83,62,30.14,29.95,7,1,12,0.00
2013-9-15,67.7,54.2,41.4,53.0,47.1,40.0,97,79,47,30.19,30.05,3,0,7,0.00
2013-9-16,58.6,52.1,40.0,54.0,48.9,39.0,97,89,67,30.37,30.06,3,0,8,0.20
2013-9-17,68.8,49.1,34.7,48.0,40.3,34.0,97,76,39,30.51,30.35,2,0,6,0.01
2013-9-18,77.0,55.4,39.7,52.0,45.8,39.0,97,75,37,30.35,30.14,5,0,5,0.00
2013-9-19,82.6,60.7,44.9,59.0,50.8,43.0,96,74,35,30.17,30.04,3,0,4,0.00
2013-9-20,81.6,64.4,49.6,62.0,54.9,49.0,97,74,42,30.06,29.88,6,1,12,0.00
2013-9-21,75.2,65.7,58.8,61.0,57.6,56.0,96,77,56,29.90,29.59,23,2,31,0.59
2013-9-22,58.8,53.5,47.1,58.0,47.5,42.0,96,81,54,29.98,29.64,6,2,15,0.04
2013-9-23,58.2,48.1,40.0,44.0,41.0,38.0,93,77,55,30.13,29.98,8,1,13,0.00
2013-9-24,62.8,48.9,38.1,47.0,42.1,37.0,96,79,55,30.12,29.98,9,1,12,0.00
2013-9-25,71.2,51.6,40.1,52.0,44.5,39.0,96,80,48,30.02,29.92,6,1,8,0.00
2013-9-26,73.1,60.5,46.3,54.0,51.0,45.0,96,71,49,30.14,30.05,2,0,5,0.00
2013-9-27,69.7,55.7,43.5,53.0,48.3,42.0,96,78,52,30.29,30.14,2,0,5,0.00
2013-9-28,74.0,58.0,43.9,55.0,49.5,43.0,97,76,48,30.36,30.23,4,0,7,0.00
2013-9-29,75.7,58.7,45.6,57.0,49.7,44.0,95,75,42,30.23,30.05,6,1,11,0.00
2013-9-30,80.4,60.2,46.4,58.0,50.6,45.0,96,74,36,30.08,29.96,4,0,4,0.00
2013-10-1,75.0,60.0,49.5,61.0,53.9,48.0,95,82,56,30.03,29.93,4,0,9,0.00
2013-10-2,75.3,62.2,52.2,64.0,56.5,49.0,96,82,61,30.05,29.92,8,1,13,0.00
2013-10-3,73.6,58.2,45.7,55.0,50.1,44.0,96,77,42,30.16,30.04,4,0,6,0.02
2013-10-4,64.9,58.8,54.5,61.0,56.4,52.0,96,91,85,30.06,30.01,6,1,7,0.31
2013-10-5,62.3,60.2,58.6,60.0,58.4,57.0,96,93,91,30.10,30.05,4,0,4,0.00
2013-10-6,64.9,60.3,54.9,61.0,58.0,54.0,96,92,88,30.05,29.92,7,3,17,0.30
2013-10-7,76.5,60.6,49.8,65.0,56.8,46.0,97,88,65,29.97,29.65,8,2,21,1.14
2013-10-8,62.5,52.0,42.7,48.0,44.0,41.0,96,76,47,30.39,29.98,7,1,11,0.00
2013-10-9,65.6,50.3,36.9,46.0,41.0,36.0,97,74,42,30.46,30.34,5,1,11,0.00
2013-10-10,66.2,51.4,39.8,46.0,41.5,35.0,95,72,33,30.34,30.18,6,1,10,0.00
2013-10-11,69.0,55.2,46.3,52.0,47.1,44.0,91,76,43,30.19,30.10,4,0,5,0.00
2013-10-12,73.2,55.8,38.3,53.0,47.3,37.0,97,76,48,30.30,30.15,12,2,14,0.00
2013-10-13,70.6,60.2,50.1,54.0,50.9,48.0,92,71,56,30.37,30.26,11,2,12,0.00
2013-10-14,59.9,57.2,55.5,55.0,52.8,50.0,95,85,72,30.32,30.26,4,0,8,0.00
2013-10-15,69.9,59.0,51.4,57.0,54.0,51.0,97,84,58,30.29,30.05,10,1,10,0.01
2013-10-16,66.9,59.5,54.0,57.0,52.4,45.0,93,78,59,30.05,29.81,7,1,10,0.08
2013-10-17,65.0,57.6,50.1,56.0,50.8,47.0,96,80,54,29.89,29.65,6,1,12,0.72
2013-10-18,59.8,53.2,45.1,51.0,44.9,38.0,97,76,45,29.93,29.66,9,2,20,0.10
2013-10-19,63.9,52.2,42.7,48.0,43.7,38.0,94,75,41,29.93,29.68,10,1,14,0.04
2013-10-20,56.2,49.4,43.0,45.0,38.6,35.0,87,68,46,30.02,29.71,8,2,17,0.00
2013-10-21,65.7,55.2,44.2,42.0,39.7,38.0,84,59,37,30.05,29.83,11,2,14,0.00
2013-10-22,57.1,49.3,41.2,44.0,37.5,31.0,81,64,51,29.84,29.73,8,2,16,0.00
2013-10-23,49.7,42.1,36.7,39.0,34.7,31.0,94,76,55,29.82,29.66,6,1,9,0.04
2013-10-24,48.0,38.7,32.9,38.0,33.7,29.0,96,84,50,29.96,29.77,8,2,18,0.18
2013-10-25,47.0,40.1,36.3,38.0,36.0,33.0,95,86,59,30.17,29.96,9,2,15,0.06
2013-10-26,46.5,42.7,37.6,37.0,31.9,28.0,91,67,51,30.16,29.83,9,3,20,0.00
2013-10-27,46.1,42.5,37.9,37.0,35.4,33.0,85,76,66,30.08,29.81,7,2,14,0.00
2013-10-28,51.0,41.6,28.0,39.0,30.9,25.0,87,65,47,30.42,30.06,11,3,21,0.00
2013-10-29,45.3,32.6,21.9,26.0,21.7,14.0,92,68,31,30.52,30.38,5,0,6,0.00
2013-10-30,52.6,40.5,33.8,41.0,34.6,25.0,93,80,64,30.37,30.23,3,0,5,0.02
2013-10-31,60.4,49.1,38.1,58.0,47.1,36.0,97,93,85,30.23,29.57,10,2,15,0.34
2013-11-1,68.2,61.1,51.7,60.0,50.0,40.0,91,69,36,29.70,29.31,16,6,34,0.14
2013-11-2,55.3,46.7,38.4,45.0,41.3,36.0,92,82,65,29.92,29.66,6,1,11,0.03
2013-11-3,38.3,33.4,23.9,35.0,24.3,19.0,88,70,48,30.58,29.93,10,2,16,0.00
2013-11-4,40.7,30.6,19.5,23.0,19.1,17.0,90,65,39,30.73,30.59,5,1,11,0.00
2013-11-5,56.7,42.7,30.2,38.0,29.5,18.0,72,60,45,30.65,30.44,8,2,14,0.00
2013-11-6,63.6,53.9,44.4,49.0,43.6,38.0,83,69,51,30.44,29.86,16,5,26,0.00
2013-11-7,59.3,46.0,35.5,52.0,41.6,34.0,94,85,70,29.97,29.78,18,5,28,0.48
2013-11-8,38.3,32.7,33.3,34.0,28.3,27.0,95,75,67,30.23,29.94,10,3,22,0.10
2013-11-9,44.8,32.0,31.4,36.0,24.4,26.0,93,55,54,30.27,29.88,7,1,13,0.01
2013-11-10,47.5,35.0,37.5,42.0,29.7,30.0,91,65,60,30.09,29.80,16,4,24,0.13
2013-11-11,43.9,34.1,32.9,37.0,27.9,30.0,94,65,60,30.18,29.96,8,2,18,0.07
2013-11-12,32.7,23.0,24.7,32.0,18.4,19.0,95,65,69,30.37,30.04,9,3,17,0.00
2013-11-13,34.2,24.2,23.4,22.0,16.7,16.0,83,58,57,30.45,30.18,10,2,13,0.00
2013-11-14,49.6,34.1,30.0,24.0,16.8,16.0,67,38,31,30.18,30.09,11,2,15,0.00
2013-11-15,56.3,38.6,39.3,27.0,18.1,17.0,59,32,25,30.20,30.12,6,2,12,0.00
2013-11-16,60.6,41.6,41.2,38.0,27.2,23.0,77,45,36,30.32,30.19,6,2,11,0.00
2013-11-17,61.4,45.5,44.1,54.0,39.9,36.0,89,64,70,30.20,29.54,17,4,21,0.01
2013-11-18,62.0,50.5,37.6,56.0,39.4,27.0,90,67,47,29.82,29.44,24,6,29,0.13
2013-11-19,37.8,32.5,26.7,31.0,25.8,17.0,95,76,65,30.48,29.82,11,4,24,0.00
2013-11-20,37.5,27.4,18.1,21.0,17.3,15.0,88,67,48,30.68,30.48,4,1,6,0.00
2013-11-21,45.7,35.7,22.5,35.0,24.4,15.0,78,64,49,30.65,30.36,9,2,14,0.01
2013-11-22,46.2,40.8,37.2,45.0,39.0,35.0,97,93,80,30.35,29.95,12,2,20,0.19
2013-11-23,37.7,30.3,18.6,34.0,24.2,16.0,93,79,43,30.14,29.91,13,5,26,0.00
2013-11-24,24.2,17.8,12.6,16.0,10.0,5.0,90,72,46,30.41,30.05,16,5,23,0.00
2013-11-25,33.1,23.7,11.7,20.0,13.3,7.0,89,66,43,30.47,30.22,14,2,18,0.00
2013-11-26,35.7,31.4,27.1,31.0,27.1,15.0,94,85,53,30.28,29.90,11,3,18,0.00
2013-11-27,35.5,32.5,25.5,34.0,31.1,23.0,96,94,89,29.88,29.54,12,4,20,0.58
2013-11-28,25.2,21.3,17.5,21.0,16.4,13.0,89,81,61,30.50,29.78,13,3,22,0.00
2013-11-29,29.1,19.7,10.0,21.0,15.1,7.0,92,82,60,30.82,30.50,8,1,12,0.00
2013-11-30,30.0,17.5,4.6,23.0,11.8,2.0,90,78,69,30.83,30.36,12,3,16,0.00
2013-12-1,38.0,32.9,25.9,30.0,27.4,22.0,92,80,69,30.35,30.05,7,1,10,0.01
2013-12-2,37.7,34.3,32.1,34.0,31.7,30.0,93,90,85,30.05,29.92,6,1,7,0.01
2013-12-3,38.9,33.4,26.9,34.0,30.6,25.0,95,89,75,30.07,29.94,3,0,6,0.00
2013-12-4,40.4,32.2,24.3,34.0,28.3,23.0,93,85,74,30.15,30.06,8,2,12,0.01
2013-12-5,57.1,47.0,34.8,53.0,42.6,29.0,93,84,76,30.12,29.87,10,4,17,0.00
2013-12-6,42.6,35.2,30.5,40.0,31.8,27.0,95,87,74,30.24,30.00,7,2,13,0.28
2013-12-7,31.6,29.1,25.5,29.0,24.2,17.0,94,82,66,30.56,30.22,10,3,17,0.00
2013-12-8,27.8,25.4,22.8,22.0,19.0,16.0,89,77,66,30.64,30.41,8,2,14,0.00
2013-12-9,43.9,32.1,24.9,37.0,28.1,22.0,93,85,71,30.40,29.92,15,4,21,0.09
2013-12-10,35.0,27.8,21.6,26.0,19.7,14.0,91,72,58,30.06,29.92,10,4,24,0.00
2013-12-11,25.5,22.4,18.6,17.0,12.2,9.0,91,64,51,30.26,30.06,11,4,21,0.00
2013-12-12,20.3,15.0,3.2,16.0,8.8,0.0,91,77,57,30.38,30.07,10,2,18,0.00
2013-12-13,23.5,18.4,8.7,20.0,11.5,0.0,90,75,65,30.48,30.02,10,4,21,0.00
2013-12-14,12.6,9.5,5.8,9.0,3.9,-2.0,88,78,63,30.58,29.99,13,3,23,0.00
2013-12-15,25.1,21.9,12.7,22.0,18.1,9.0,91,85,72,29.97,29.68,16,3,25,0.00
2013-12-16,23.6,14.2,3.0,15.0,9.2,0.0,90,81,58,30.27,29.81,8,2,24,0.00
2013-12-17,14.4,7.4,-1.6,11.0,4.0,-5.0,88,86,83,30.26,30.05,7,2,13,0.00
2013-12-18,31.7,23.3,9.6,23.0,17.2,7.0,91,78,64,30.12,30.03,9,2,14,0.00
2013-12-19,41.3,34.3,28.2,30.0,24.5,19.0,79,68,55,30.13,30.00,12,3,18,0.04
2013-12-20,47.8,40.7,34.8,44.0,36.7,29.0,95,86,72,30.08,29.87,10,3,17,0.27
2013-12-21,56.5,51.5,44.7,51.0,48.4,44.0,97,89,81,29.87,29.80,13,4,22,0.67
2013-12-22,65.5,47.5,36.3,57.0,44.0,35.0,98,88,63,30.01,29.58,12,3,26,0.09
2013-12-23,40.9,36.7,27.2,40.0,35.1,23.0,97,93,84,30.27,30.01,10,2,13,0.08
2013-12-24,26.8,21.5,11.5,22.0,16.6,7.0,90,81,72,30.47,30.21,9,2,14,0.00
2013-12-25,20.3,12.5,2.6,13.0,6.4,0.0,91,77,60,30.63,30.36,7,2,14,0.00
2013-12-26,31.6,25.6,19.2,25.0,20.7,13.0,92,81,63,30.36,30.15,6,2,13,0.00
2013-12-27,32.0,27.6,22.8,27.0,21.7,16.0,86,78,68,30.32,30.22,10,2,14,0.00
2013-12-28,40.8,34.4,25.6,33.0,28.2,22.0,95,79,64,30.21,30.03,9,2,12,0.10
2013-12-29,41.6,35.8,28.6,37.0,31.5,27.0,97,85,65,30.02,29.67,3,1,10,0.37
2013-12-30,36.7,20.4,11.0,35.0,15.9,8.0,97,82,69,30.27,29.71,12,4,25,0.09
2013-12-31,24.5,17.0,11.2,20.0,10.0,2.0,91,75,52,30.25,30.03,14,3,30,0.00
2014-1-1,19.1,16.5,12.9,15.0,10.9,6.0,88,79,65,30.44,30.25,6,2,18,0.00
2014-1-2,13.2,9.5,0.2,11.0,6.4,-3.0,90,87,84,30.39,29.98,6,1,12,0.00